sensor_id;sensor_type;location;lat;lon;timestamp;temperature;humidity
59893;DHT22;45758;51.052;3.740;2022-12-11T00:00:51;3.40;99.90
59893;DHT22;45758;51.052;3.740;2022-12-11T00:03:17;3.30;99.90
59893;DHT22;45758;51.052;3.740;2022-12-11T00:05:44;3.30;99.90
59893;DHT22;45758;51.052;3.740;2022-12-11T00:08:10;3.30;99.90
59893;DHT22;45758;51.052;3.740;2022-12-11T00:10:37;3.40;99.90
59893;DHT22;45758;51.052;3.740;2022-12-11T00:13:04;3.40;99.90
59893;DHT22;45758;51.052;3.740;2022-12-11T00:15:30;3.40;99.90
59893;DHT22;45758;51.052;3.740;2022-12-11T00:17:56;3.40;99.90
59893;DHT22;45758;51.052;3.740;2022-12-11T00:20:22;3.30;99.90
59893;DHT22;45758;51.052;3.740;2022-12-11T00:22:48;3.40;99.90
59893;DHT22;45758;51.052;3.740;2022-12-11T00:25:14;3.30;99.90
59893;DHT22;45758;51.052;3.740;2022-12-11T00:27:40;3.30;99.90
59893;DHT22;45758;51.052;3.740;2022-12-11T00:30:06;3.40;99.90
59893;DHT22;45758;51.052;3.740;2022-12-11T00:32:32;3.30;99.90
59893;DHT22;45758;51.052;3.740;2022-12-11T00:34:58;3.40;99.90
59893;DHT22;45758;51.052;3.740;2022-12-11T00:37:24;3.30;99.90
59893;DHT22;45758;51.052;3.740;2022-12-11T00:39:50;3.20;99.90
59893;DHT22;45758;51.052;3.740;2022-12-11T00:42:16;3.30;99.90
59893;DHT22;45758;51.052;3.740;2022-12-11T00:44:42;3.30;99.90
59893;DHT22;45758;51.052;3.740;2022-12-11T00:47:07;3.40;99.90
59893;DHT22;45758;51.052;3.740;2022-12-11T00:49:33;3.40;99.90
59893;DHT22;45758;51.052;3.740;2022-12-11T00:51:59;3.40;99.90
59893;DHT22;45758;51.052;3.740;2022-12-11T00:54:25;3.30;99.90
59893;DHT22;45758;51.052;3.740;2022-12-11T00:56:54;3.30;99.90
59893;DHT22;45758;51.052;3.740;2022-12-11T00:59:20;3.30;99.90
59893;DHT22;45758;51.052;3.740;2022-12-11T01:01:46;3.40;99.90
59893;DHT22;45758;51.052;3.740;2022-12-11T01:04:12;3.30;99.90
59893;DHT22;45758;51.052;3.740;2022-12-11T01:06:38;3.30;99.90
59893;DHT22;45758;51.052;3.740;2022-12-11T01:09:04;3.30;99.90
59893;DHT22;45758;51.052;3.740;2022-12-11T01:11:48;3.20;99.90
59893;DHT22;45758;51.052;3.740;2022-12-11T01:14:14;3.20;99.90
59893;DHT22;45758;51.052;3.740;2022-12-11T01:16:39;3.20;99.90
59893;DHT22;45758;51.052;3.740;2022-12-11T01:19:05;3.20;99.90
59893;DHT22;45758;51.052;3.740;2022-12-11T01:21:31;3.20;99.90
59893;DHT22;45758;51.052;3.740;2022-12-11T01:23:57;3.40;99.90
59893;DHT22;45758;51.052;3.740;2022-12-11T01:26:23;3.30;99.90
59893;DHT22;45758;51.052;3.740;2022-12-11T01:28:50;3.30;99.90
59893;DHT22;45758;51.052;3.740;2022-12-11T01:31:16;3.20;99.90
59893;DHT22;45758;51.052;3.740;2022-12-11T01:33:43;3.20;99.90
59893;DHT22;45758;51.052;3.740;2022-12-11T01:38:38;3.20;99.90
59893;DHT22;45758;51.052;3.740;2022-12-11T01:41:04;3.30;99.90
59893;DHT22;45758;51.052;3.740;2022-12-11T01:43:30;3.20;99.90
59893;DHT22;45758;51.052;3.740;2022-12-11T01:45:56;3.20;99.90
59893;DHT22;45758;51.052;3.740;2022-12-11T01:48:28;3.10;99.90
59893;DHT22;45758;51.052;3.740;2022-12-11T01:50:58;3.10;99.90
59893;DHT22;45758;51.052;3.740;2022-12-11T01:53:29;3.20;99.90
59893;DHT22;45758;51.052;3.740;2022-12-11T01:55:57;3.20;99.90
59893;DHT22;45758;51.052;3.740;2022-12-11T01:58:30;3.30;99.90
59893;DHT22;45758;51.052;3.740;2022-12-11T02:00:57;3.30;99.90
59893;DHT22;45758;51.052;3.740;2022-12-11T02:03:23;3.30;99.90
59893;DHT22;45758;51.052;3.740;2022-12-11T02:05:49;3.30;99.90
59893;DHT22;45758;51.052;3.740;2022-12-11T02:08:15;3.30;99.90
59893;DHT22;45758;51.052;3.740;2022-12-11T02:13:49;3.20;99.90
59893;DHT22;45758;51.052;3.740;2022-12-11T02:16:34;3.20;99.90
59893;DHT22;45758;51.052;3.740;2022-12-11T02:28:12;3.30;99.90
59893;DHT22;45758;51.052;3.740;2022-12-11T02:30:45;3.50;99.90
59893;DHT22;45758;51.052;3.740;2022-12-11T02:33:14;3.40;99.90
59893;DHT22;45758;51.052;3.740;2022-12-11T02:35:43;3.30;99.90
59893;DHT22;45758;51.052;3.740;2022-12-11T02:38:27;3.40;99.90
59893;DHT22;45758;51.052;3.740;2022-12-11T02:40:55;3.40;99.90
59893;DHT22;45758;51.052;3.740;2022-12-11T02:43:22;3.30;99.90
59893;DHT22;45758;51.052;3.740;2022-12-11T02:45:50;3.20;99.90
59893;DHT22;45758;51.052;3.740;2022-12-11T02:48:17;3.20;99.90
59893;DHT22;45758;51.052;3.740;2022-12-11T02:50:50;3.20;99.90
59893;DHT22;45758;51.052;3.740;2022-12-11T02:53:20;3.20;99.90
59893;DHT22;45758;51.052;3.740;2022-12-11T02:55:51;3.30;99.90
59893;DHT22;45758;51.052;3.740;2022-12-11T02:58:26;3.30;99.90
59893;DHT22;45758;51.052;3.740;2022-12-11T03:00:53;3.40;99.90
59893;DHT22;45758;51.052;3.740;2022-12-11T03:03:19;3.30;99.90
59893;DHT22;45758;51.052;3.740;2022-12-11T03:05:44;3.20;99.90
59893;DHT22;45758;51.052;3.740;2022-12-11T03:08:11;3.30;99.90
59893;DHT22;45758;51.052;3.740;2022-12-11T03:10:36;3.30;99.90
59893;DHT22;45758;51.052;3.740;2022-12-11T03:13:03;3.20;99.90
59893;DHT22;45758;51.052;3.740;2022-12-11T03:18:39;3.20;99.90
59893;DHT22;45758;51.052;3.740;2022-12-11T03:21:26;3.20;99.90
59893;DHT22;45758;51.052;3.740;2022-12-11T03:26:53;3.30;99.90
59893;DHT22;45758;51.052;3.740;2022-12-11T03:29:28;3.30;99.90
59893;DHT22;45758;51.052;3.740;2022-12-11T03:32:08;3.30;99.90
59893;DHT22;45758;51.052;3.740;2022-12-11T03:34:45;3.20;99.90
59893;DHT22;45758;51.052;3.740;2022-12-11T03:37:16;3.30;99.90
59893;DHT22;45758;51.052;3.740;2022-12-11T03:39:47;3.40;99.90
59893;DHT22;45758;51.052;3.740;2022-12-11T03:42:15;3.30;99.90
59893;DHT22;45758;51.052;3.740;2022-12-11T03:44:45;3.30;99.90
59893;DHT22;45758;51.052;3.740;2022-12-11T03:47:17;3.20;99.90
59893;DHT22;45758;51.052;3.740;2022-12-11T03:49:45;3.20;99.90
59893;DHT22;45758;51.052;3.740;2022-12-11T03:52:13;3.30;99.90
59893;DHT22;45758;51.052;3.740;2022-12-11T03:54:41;3.20;99.90
59893;DHT22;45758;51.052;3.740;2022-12-11T03:57:10;3.20;99.90
59893;DHT22;45758;51.052;3.740;2022-12-11T03:59:38;3.30;99.90
59893;DHT22;45758;51.052;3.740;2022-12-11T04:02:04;3.20;99.90
59893;DHT22;45758;51.052;3.740;2022-12-11T04:04:39;3.20;99.90
59893;DHT22;45758;51.052;3.740;2022-12-11T04:07:06;3.30;99.90
59893;DHT22;45758;51.052;3.740;2022-12-11T04:09:33;3.30;99.90
59893;DHT22;45758;51.052;3.740;2022-12-11T04:11:59;3.30;99.90
59893;DHT22;45758;51.052;3.740;2022-12-11T04:14:26;3.30;99.90
59893;DHT22;45758;51.052;3.740;2022-12-11T04:17:10;3.30;99.90
59893;DHT22;45758;51.052;3.740;2022-12-11T04:19:36;3.40;99.90
59893;DHT22;45758;51.052;3.740;2022-12-11T04:22:20;3.40;99.90
59893;DHT22;45758;51.052;3.740;2022-12-11T04:25:06;3.40;99.90
59893;DHT22;45758;51.052;3.740;2022-12-11T04:27:32;3.40;99.90
59893;DHT22;45758;51.052;3.740;2022-12-11T04:30:16;3.40;99.90
59893;DHT22;45758;51.052;3.740;2022-12-11T04:32:42;3.30;99.90
59893;DHT22;45758;51.052;3.740;2022-12-11T04:35:09;3.40;99.90
59893;DHT22;45758;51.052;3.740;2022-12-11T04:37:36;3.40;99.90
59893;DHT22;45758;51.052;3.740;2022-12-11T04:40:03;3.50;99.90
59893;DHT22;45758;51.052;3.740;2022-12-11T04:42:29;3.40;99.90
59893;DHT22;45758;51.052;3.740;2022-12-11T04:44:55;3.40;99.90
59893;DHT22;45758;51.052;3.740;2022-12-11T04:47:20;3.40;99.90
59893;DHT22;45758;51.052;3.740;2022-12-11T04:49:46;3.20;99.90
59893;DHT22;45758;51.052;3.740;2022-12-11T04:52:12;3.20;99.90
59893;DHT22;45758;51.052;3.740;2022-12-11T04:54:38;3.30;99.90
59893;DHT22;45758;51.052;3.740;2022-12-11T04:57:04;3.30;99.90
59893;DHT22;45758;51.052;3.740;2022-12-11T04:59:31;3.30;99.90
59893;DHT22;45758;51.052;3.740;2022-12-11T05:01:57;3.40;99.90
59893;DHT22;45758;51.052;3.740;2022-12-11T05:04:23;3.30;99.90
59893;DHT22;45758;51.052;3.740;2022-12-11T05:06:49;3.30;99.90
59893;DHT22;45758;51.052;3.740;2022-12-11T05:09:16;3.30;99.90
59893;DHT22;45758;51.052;3.740;2022-12-11T05:11:42;3.30;99.90
59893;DHT22;45758;51.052;3.740;2022-12-11T05:14:07;3.30;99.90
59893;DHT22;45758;51.052;3.740;2022-12-11T05:16:33;3.50;99.90
59893;DHT22;45758;51.052;3.740;2022-12-11T05:18:59;3.50;99.90
59893;DHT22;45758;51.052;3.740;2022-12-11T05:21:26;3.40;99.90
59893;DHT22;45758;51.052;3.740;2022-12-11T05:23:52;3.30;99.90
59893;DHT22;45758;51.052;3.740;2022-12-11T05:26:19;3.30;99.90
59893;DHT22;45758;51.052;3.740;2022-12-11T05:28:47;3.20;99.90
59893;DHT22;45758;51.052;3.740;2022-12-11T05:31:21;3.20;99.90
59893;DHT22;45758;51.052;3.740;2022-12-11T05:33:48;3.20;99.90
59893;DHT22;45758;51.052;3.740;2022-12-11T05:36:18;3.20;99.90
59893;DHT22;45758;51.052;3.740;2022-12-11T05:38:44;3.30;99.90
59893;DHT22;45758;51.052;3.740;2022-12-11T05:41:14;3.30;99.90
59893;DHT22;45758;51.052;3.740;2022-12-11T05:43:40;3.40;99.90
59893;DHT22;45758;51.052;3.740;2022-12-11T05:46:07;3.30;99.90
59893;DHT22;45758;51.052;3.740;2022-12-11T05:48:34;3.30;99.90
59893;DHT22;45758;51.052;3.740;2022-12-11T05:51:01;3.30;99.90
59893;DHT22;45758;51.052;3.740;2022-12-11T05:53:28;3.30;99.90
59893;DHT22;45758;51.052;3.740;2022-12-11T05:55:54;3.30;99.90
59893;DHT22;45758;51.052;3.740;2022-12-11T05:58:20;3.40;99.90
59893;DHT22;45758;51.052;3.740;2022-12-11T06:00:46;3.40;99.90
59893;DHT22;45758;51.052;3.740;2022-12-11T06:03:13;3.30;99.90
59893;DHT22;45758;51.052;3.740;2022-12-11T06:05:40;3.40;99.90
59893;DHT22;45758;51.052;3.740;2022-12-11T06:08:06;3.30;99.90
59893;DHT22;45758;51.052;3.740;2022-12-11T06:10:32;3.30;99.90
59893;DHT22;45758;51.052;3.740;2022-12-11T06:12:58;3.30;99.90
59893;DHT22;45758;51.052;3.740;2022-12-11T06:15:24;3.30;99.90
59893;DHT22;45758;51.052;3.740;2022-12-11T06:17:50;3.30;99.90
59893;DHT22;45758;51.052;3.740;2022-12-11T06:20:16;3.30;99.90
59893;DHT22;45758;51.052;3.740;2022-12-11T06:22:41;3.40;99.90
59893;DHT22;45758;51.052;3.740;2022-12-11T06:25:07;3.40;99.90
59893;DHT22;45758;51.052;3.740;2022-12-11T06:27:34;3.40;99.90
59893;DHT22;45758;51.052;3.740;2022-12-11T06:30:00;3.40;99.90
59893;DHT22;45758;51.052;3.740;2022-12-11T06:32:26;3.40;99.90
59893;DHT22;45758;51.052;3.740;2022-12-11T06:34:51;3.40;99.90
59893;DHT22;45758;51.052;3.740;2022-12-11T06:37:17;3.40;99.90
59893;DHT22;45758;51.052;3.740;2022-12-11T06:39:43;3.40;99.90
59893;DHT22;45758;51.052;3.740;2022-12-11T06:42:09;3.50;99.90
59893;DHT22;45758;51.052;3.740;2022-12-11T06:44:34;3.50;99.90
59893;DHT22;45758;51.052;3.740;2022-12-11T06:47:00;3.50;99.90
59893;DHT22;45758;51.052;3.740;2022-12-11T06:49:26;3.40;99.90
59893;DHT22;45758;51.052;3.740;2022-12-11T06:51:52;3.50;99.90
59893;DHT22;45758;51.052;3.740;2022-12-11T06:54:18;3.40;99.90
59893;DHT22;45758;51.052;3.740;2022-12-11T06:56:43;3.40;99.90
59893;DHT22;45758;51.052;3.740;2022-12-11T06:59:12;3.40;99.90
59893;DHT22;45758;51.052;3.740;2022-12-11T07:01:38;3.40;99.90
59893;DHT22;45758;51.052;3.740;2022-12-11T07:04:05;3.40;99.90
59893;DHT22;45758;51.052;3.740;2022-12-11T07:06:31;3.40;99.90
59893;DHT22;45758;51.052;3.740;2022-12-11T07:08:56;3.30;99.90
59893;DHT22;45758;51.052;3.740;2022-12-11T07:11:23;3.30;99.90
59893;DHT22;45758;51.052;3.740;2022-12-11T07:13:49;3.40;99.90
59893;DHT22;45758;51.052;3.740;2022-12-11T07:16:16;3.50;99.90
59893;DHT22;45758;51.052;3.740;2022-12-11T07:18:45;3.40;99.90
59893;DHT22;45758;51.052;3.740;2022-12-11T07:21:12;3.50;99.90
59893;DHT22;45758;51.052;3.740;2022-12-11T07:23:38;3.40;99.90
59893;DHT22;45758;51.052;3.740;2022-12-11T07:26:06;3.30;99.90
59893;DHT22;45758;51.052;3.740;2022-12-11T07:28:32;3.30;99.90
59893;DHT22;45758;51.052;3.740;2022-12-11T07:30:59;3.20;99.90
59893;DHT22;45758;51.052;3.740;2022-12-11T07:33:24;3.30;99.90
59893;DHT22;45758;51.052;3.740;2022-12-11T07:35:50;3.30;99.90
59893;DHT22;45758;51.052;3.740;2022-12-11T07:38:16;3.30;99.90
59893;DHT22;45758;51.052;3.740;2022-12-11T07:40:42;3.30;99.90
59893;DHT22;45758;51.052;3.740;2022-12-11T07:43:08;3.30;99.90
59893;DHT22;45758;51.052;3.740;2022-12-11T07:45:33;3.20;99.90
59893;DHT22;45758;51.052;3.740;2022-12-11T07:47:59;3.30;99.90
59893;DHT22;45758;51.052;3.740;2022-12-11T07:50:25;3.20;99.90
59893;DHT22;45758;51.052;3.740;2022-12-11T07:52:51;3.10;99.90
59893;DHT22;45758;51.052;3.740;2022-12-11T07:55:17;3.20;99.90
59893;DHT22;45758;51.052;3.740;2022-12-11T07:57:42;3.30;99.90
59893;DHT22;45758;51.052;3.740;2022-12-11T08:00:09;3.20;99.90
59893;DHT22;45758;51.052;3.740;2022-12-11T08:02:36;3.30;99.90
59893;DHT22;45758;51.052;3.740;2022-12-11T08:05:02;3.20;99.90
59893;DHT22;45758;51.052;3.740;2022-12-11T08:07:28;3.10;99.90
59893;DHT22;45758;51.052;3.740;2022-12-11T08:09:54;3.10;99.90
59893;DHT22;45758;51.052;3.740;2022-12-11T08:12:20;3.00;99.90
59893;DHT22;45758;51.052;3.740;2022-12-11T08:14:46;3.20;99.90
59893;DHT22;45758;51.052;3.740;2022-12-11T08:17:11;3.10;99.90
59893;DHT22;45758;51.052;3.740;2022-12-11T08:19:37;3.10;99.90
59893;DHT22;45758;51.052;3.740;2022-12-11T08:22:03;3.20;99.90
59893;DHT22;45758;51.052;3.740;2022-12-11T08:24:29;3.20;99.90
59893;DHT22;45758;51.052;3.740;2022-12-11T08:26:56;3.20;99.90
59893;DHT22;45758;51.052;3.740;2022-12-11T08:29:21;3.20;99.90
59893;DHT22;45758;51.052;3.740;2022-12-11T08:31:47;3.20;99.90
59893;DHT22;45758;51.052;3.740;2022-12-11T08:34:14;3.20;99.90
59893;DHT22;45758;51.052;3.740;2022-12-11T08:36:41;3.10;99.90
59893;DHT22;45758;51.052;3.740;2022-12-11T08:39:08;3.10;99.90
59893;DHT22;45758;51.052;3.740;2022-12-11T08:41:34;3.10;99.90
59893;DHT22;45758;51.052;3.740;2022-12-11T08:44:00;3.20;99.90
59893;DHT22;45758;51.052;3.740;2022-12-11T08:46:29;3.10;99.90
59893;DHT22;45758;51.052;3.740;2022-12-11T08:48:56;3.20;99.90
59893;DHT22;45758;51.052;3.740;2022-12-11T08:51:24;3.20;99.90
59893;DHT22;45758;51.052;3.740;2022-12-11T08:53:57;3.20;99.90
59893;DHT22;45758;51.052;3.740;2022-12-11T08:56:23;3.20;99.90
59893;DHT22;45758;51.052;3.740;2022-12-11T08:58:50;3.20;99.90
59893;DHT22;45758;51.052;3.740;2022-12-11T09:01:22;3.20;99.90
59893;DHT22;45758;51.052;3.740;2022-12-11T09:03:49;3.30;99.90
59893;DHT22;45758;51.052;3.740;2022-12-11T09:06:19;3.30;99.90
59893;DHT22;45758;51.052;3.740;2022-12-11T09:08:47;3.20;99.90
59893;DHT22;45758;51.052;3.740;2022-12-11T09:11:16;3.30;99.90
59893;DHT22;45758;51.052;3.740;2022-12-11T09:13:42;3.30;99.90
59893;DHT22;45758;51.052;3.740;2022-12-11T09:16:11;3.30;99.90
59893;DHT22;45758;51.052;3.740;2022-12-11T09:18:38;3.20;99.90
59893;DHT22;45758;51.052;3.740;2022-12-11T09:21:08;3.30;99.90
59893;DHT22;45758;51.052;3.740;2022-12-11T09:23:35;3.30;99.90
59893;DHT22;45758;51.052;3.740;2022-12-11T09:26:05;3.40;99.90
59893;DHT22;45758;51.052;3.740;2022-12-11T09:28:33;3.30;99.90
59893;DHT22;45758;51.052;3.740;2022-12-11T09:30:59;3.50;99.90
59893;DHT22;45758;51.052;3.740;2022-12-11T09:33:25;3.40;99.90
59893;DHT22;45758;51.052;3.740;2022-12-11T09:36:02;3.40;99.90
59893;DHT22;45758;51.052;3.740;2022-12-11T09:38:28;3.30;99.90
59893;DHT22;45758;51.052;3.740;2022-12-11T09:40:55;3.30;99.90
59893;DHT22;45758;51.052;3.740;2022-12-11T09:46:02;3.30;99.90
59893;DHT22;45758;51.052;3.740;2022-12-11T09:48:32;3.40;99.90
59893;DHT22;45758;51.052;3.740;2022-12-11T09:51:09;3.50;99.90
59893;DHT22;45758;51.052;3.740;2022-12-11T09:53:36;3.40;99.90
59893;DHT22;45758;51.052;3.740;2022-12-11T09:56:13;3.40;99.90
59893;DHT22;45758;51.052;3.740;2022-12-11T10:07:12;3.50;99.90
59893;DHT22;45758;51.052;3.740;2022-12-11T10:13:10;3.50;99.90
59893;DHT22;45758;51.052;3.740;2022-12-11T10:15:55;3.50;99.90
59893;DHT22;45758;51.052;3.740;2022-12-11T10:18:23;3.50;99.90
59893;DHT22;45758;51.052;3.740;2022-12-11T10:20:53;3.60;99.90
59893;DHT22;45758;51.052;3.740;2022-12-11T10:26:09;3.60;99.90
59893;DHT22;45758;51.052;3.740;2022-12-11T10:28:37;3.60;99.90
59893;DHT22;45758;51.052;3.740;2022-12-11T10:36:07;3.70;99.90
59893;DHT22;45758;51.052;3.740;2022-12-11T10:38:38;3.80;99.90
59893;DHT22;45758;51.052;3.740;2022-12-11T10:41:18;3.70;99.90
59893;DHT22;45758;51.052;3.740;2022-12-11T10:43:47;3.80;99.90
59893;DHT22;45758;51.052;3.740;2022-12-11T10:46:22;3.70;99.90
59893;DHT22;45758;51.052;3.740;2022-12-11T10:48:51;3.70;99.90
59893;DHT22;45758;51.052;3.740;2022-12-11T10:51:18;3.60;99.90
59893;DHT22;45758;51.052;3.740;2022-12-11T10:53:52;3.50;99.90
59893;DHT22;45758;51.052;3.740;2022-12-11T10:56:31;3.60;99.90
59893;DHT22;45758;51.052;3.740;2022-12-11T10:58:58;3.70;99.90
59893;DHT22;45758;51.052;3.740;2022-12-11T11:01:30;3.70;99.90
59893;DHT22;45758;51.052;3.740;2022-12-11T11:04:06;3.70;99.90
59893;DHT22;45758;51.052;3.740;2022-12-11T11:06:38;3.70;99.90
59893;DHT22;45758;51.052;3.740;2022-12-11T11:11:53;3.70;99.90
59893;DHT22;45758;51.052;3.740;2022-12-11T11:14:21;3.80;99.90
59893;DHT22;45758;51.052;3.740;2022-12-11T11:16:53;3.80;99.90
59893;DHT22;45758;51.052;3.740;2022-12-11T11:19:30;3.80;99.90
59893;DHT22;45758;51.052;3.740;2022-12-11T11:22:04;3.80;99.90
59893;DHT22;45758;51.052;3.740;2022-12-11T11:24:40;3.80;99.90
59893;DHT22;45758;51.052;3.740;2022-12-11T11:27:35;3.90;99.90
59893;DHT22;45758;51.052;3.740;2022-12-11T11:32:45;3.80;99.90
59893;DHT22;45758;51.052;3.740;2022-12-11T11:37:41;3.70;99.90
59893;DHT22;45758;51.052;3.740;2022-12-11T11:40:29;3.70;99.90
59893;DHT22;45758;51.052;3.740;2022-12-11T11:42:57;3.70;99.90
59893;DHT22;45758;51.052;3.740;2022-12-11T11:45:33;3.50;99.90
59893;DHT22;45758;51.052;3.740;2022-12-11T11:48:16;3.50;99.90
59893;DHT22;45758;51.052;3.740;2022-12-11T11:50:46;3.60;99.90
59893;DHT22;45758;51.052;3.740;2022-12-11T11:53:29;3.50;99.90
59893;DHT22;45758;51.052;3.740;2022-12-11T12:01:40;3.50;99.90
59893;DHT22;45758;51.052;3.740;2022-12-11T12:04:07;3.70;99.90
59893;DHT22;45758;51.052;3.740;2022-12-11T12:06:43;3.70;99.90
59893;DHT22;45758;51.052;3.740;2022-12-11T12:18:08;3.50;99.90
59893;DHT22;45758;51.052;3.740;2022-12-11T12:28:41;3.70;99.90
59893;DHT22;45758;51.052;3.740;2022-12-11T12:41:56;3.50;99.90
59893;DHT22;45758;51.052;3.740;2022-12-11T12:44:29;3.40;99.90
59893;DHT22;45758;51.052;3.740;2022-12-11T12:47:01;3.30;99.90
59893;DHT22;45758;51.052;3.740;2022-12-11T12:52:05;3.50;99.90
59893;DHT22;45758;51.052;3.740;2022-12-11T12:54:35;3.50;99.90
59893;DHT22;45758;51.052;3.740;2022-12-11T12:57:02;3.60;99.90
59893;DHT22;45758;51.052;3.740;2022-12-11T12:59:29;3.50;99.90
59893;DHT22;45758;51.052;3.740;2022-12-11T13:02:00;3.60;99.90
59893;DHT22;45758;51.052;3.740;2022-12-11T13:04:40;3.50;99.90
59893;DHT22;45758;51.052;3.740;2022-12-11T13:07:19;3.40;99.90
59893;DHT22;45758;51.052;3.740;2022-12-11T13:09:56;3.50;99.90
59893;DHT22;45758;51.052;3.740;2022-12-11T13:12:39;3.40;99.90
59893;DHT22;45758;51.052;3.740;2022-12-11T13:18:02;3.40;99.90
59893;DHT22;45758;51.052;3.740;2022-12-11T13:20:31;3.40;99.90
59893;DHT22;45758;51.052;3.740;2022-12-11T13:25:53;3.40;99.90
59893;DHT22;45758;51.052;3.740;2022-12-11T13:33:49;3.50;99.90
59893;DHT22;45758;51.052;3.740;2022-12-11T13:36:32;3.40;99.90
59893;DHT22;45758;51.052;3.740;2022-12-11T13:39:36;3.50;99.90
59893;DHT22;45758;51.052;3.740;2022-12-11T13:42:23;3.60;99.90
59893;DHT22;45758;51.052;3.740;2022-12-11T13:44:51;3.60;99.90
59893;DHT22;45758;51.052;3.740;2022-12-11T13:47:18;3.50;99.90
59893;DHT22;45758;51.052;3.740;2022-12-11T13:49:48;3.50;99.90
59893;DHT22;45758;51.052;3.740;2022-12-11T13:52:20;3.50;99.90
59893;DHT22;45758;51.052;3.740;2022-12-11T13:54:52;3.50;99.90
59893;DHT22;45758;51.052;3.740;2022-12-11T13:57:24;3.40;99.90
59893;DHT22;45758;51.052;3.740;2022-12-11T13:59:57;3.50;99.90
59893;DHT22;45758;51.052;3.740;2022-12-11T14:02:42;3.50;99.90
59893;DHT22;45758;51.052;3.740;2022-12-11T14:05:10;3.50;99.90
59893;DHT22;45758;51.052;3.740;2022-12-11T14:07:40;3.50;99.90
59893;DHT22;45758;51.052;3.740;2022-12-11T14:12:52;3.30;99.90
59893;DHT22;45758;51.052;3.740;2022-12-11T14:15:28;3.40;99.90
59893;DHT22;45758;51.052;3.740;2022-12-11T14:17:58;3.40;99.90
59893;DHT22;45758;51.052;3.740;2022-12-11T14:20:30;3.40;99.90
59893;DHT22;45758;51.052;3.740;2022-12-11T14:23:19;3.40;99.90
59893;DHT22;45758;51.052;3.740;2022-12-11T14:25:57;3.20;99.90
59893;DHT22;45758;51.052;3.740;2022-12-11T14:28:25;3.20;99.90
59893;DHT22;45758;51.052;3.740;2022-12-11T14:30:55;3.10;99.90
59893;DHT22;45758;51.052;3.740;2022-12-11T14:33:31;3.10;99.90
59893;DHT22;45758;51.052;3.740;2022-12-11T14:35:59;3.10;99.90
59893;DHT22;45758;51.052;3.740;2022-12-11T14:38:46;3.20;99.90
59893;DHT22;45758;51.052;3.740;2022-12-11T14:41:40;3.30;99.90
59893;DHT22;45758;51.052;3.740;2022-12-11T14:44:05;3.30;99.90
59893;DHT22;45758;51.052;3.740;2022-12-11T14:46:42;3.20;99.90
59893;DHT22;45758;51.052;3.740;2022-12-11T14:49:54;3.20;99.90
59893;DHT22;45758;51.052;3.740;2022-12-11T14:52:32;3.30;99.90
59893;DHT22;45758;51.052;3.740;2022-12-11T14:55:25;3.30;99.90
59893;DHT22;45758;51.052;3.740;2022-12-11T14:58:24;3.20;99.90
59893;DHT22;45758;51.052;3.740;2022-12-11T15:04:25;3.10;99.90
59893;DHT22;45758;51.052;3.740;2022-12-11T15:06:51;3.10;99.90
59893;DHT22;45758;51.052;3.740;2022-12-11T15:12:16;3.10;99.90
59893;DHT22;45758;51.052;3.740;2022-12-11T15:14:52;3.10;99.90
59893;DHT22;45758;51.052;3.740;2022-12-11T15:17:20;3.20;99.90
59893;DHT22;45758;51.052;3.740;2022-12-11T15:20:01;3.10;99.90
59893;DHT22;45758;51.052;3.740;2022-12-11T15:22:30;3.10;99.90
59893;DHT22;45758;51.052;3.740;2022-12-11T15:24:57;3.10;99.90
59893;DHT22;45758;51.052;3.740;2022-12-11T15:27:33;3.10;99.90
59893;DHT22;45758;51.052;3.740;2022-12-11T15:32:42;3.10;99.90
59893;DHT22;45758;51.052;3.740;2022-12-11T15:35:24;3.10;99.90
59893;DHT22;45758;51.052;3.740;2022-12-11T15:37:58;3.00;99.90
59893;DHT22;45758;51.052;3.740;2022-12-11T15:40:28;3.00;99.90
59893;DHT22;45758;51.052;3.740;2022-12-11T15:42:56;3.10;99.90
59893;DHT22;45758;51.052;3.740;2022-12-11T15:45:27;3.00;99.90
59893;DHT22;45758;51.052;3.740;2022-12-11T15:47:53;3.00;99.90
59893;DHT22;45758;51.052;3.740;2022-12-11T15:52:48;2.90;99.90
59893;DHT22;45758;51.052;3.740;2022-12-11T15:55:16;2.90;99.90
59893;DHT22;45758;51.052;3.740;2022-12-11T15:57:54;3.00;99.90
59893;DHT22;45758;51.052;3.740;2022-12-11T16:00:20;2.90;99.90
59893;DHT22;45758;51.052;3.740;2022-12-11T16:02:55;3.00;99.90
59893;DHT22;45758;51.052;3.740;2022-12-11T16:05:21;3.10;99.90
59893;DHT22;45758;51.052;3.740;2022-12-11T16:07:48;3.00;99.90
59893;DHT22;45758;51.052;3.740;2022-12-11T16:10:18;3.00;99.90
59893;DHT22;45758;51.052;3.740;2022-12-11T16:12:44;3.10;99.90
59893;DHT22;45758;51.052;3.740;2022-12-11T16:15:11;3.10;99.90
59893;DHT22;45758;51.052;3.740;2022-12-11T16:17:41;3.10;99.90
59893;DHT22;45758;51.052;3.740;2022-12-11T16:20:10;2.90;99.90
59893;DHT22;45758;51.052;3.740;2022-12-11T16:22:36;2.90;99.90
59893;DHT22;45758;51.052;3.740;2022-12-11T16:25:03;2.90;99.90
59893;DHT22;45758;51.052;3.740;2022-12-11T16:27:32;2.90;99.90
59893;DHT22;45758;51.052;3.740;2022-12-11T16:30:00;2.90;99.90
59893;DHT22;45758;51.052;3.740;2022-12-11T16:32:31;2.80;99.90
59893;DHT22;45758;51.052;3.740;2022-12-11T16:34:57;2.90;99.90
59893;DHT22;45758;51.052;3.740;2022-12-11T16:37:26;2.80;99.90
59893;DHT22;45758;51.052;3.740;2022-12-11T16:39:52;2.90;99.90
59893;DHT22;45758;51.052;3.740;2022-12-11T16:42:21;2.90;99.90
59893;DHT22;45758;51.052;3.740;2022-12-11T16:44:47;2.90;99.90
59893;DHT22;45758;51.052;3.740;2022-12-11T16:47:13;3.00;99.90
59893;DHT22;45758;51.052;3.740;2022-12-11T16:49:39;2.90;99.90
59893;DHT22;45758;51.052;3.740;2022-12-11T16:52:09;2.80;99.90
59893;DHT22;45758;51.052;3.740;2022-12-11T16:54:37;2.90;99.90
59893;DHT22;45758;51.052;3.740;2022-12-11T16:57:06;2.90;99.90
59893;DHT22;45758;51.052;3.740;2022-12-11T16:59:33;2.80;99.90
59893;DHT22;45758;51.052;3.740;2022-12-11T17:02:01;2.80;99.90
59893;DHT22;45758;51.052;3.740;2022-12-11T17:04:28;2.80;99.90
59893;DHT22;45758;51.052;3.740;2022-12-11T17:07:16;2.80;99.90
59893;DHT22;45758;51.052;3.740;2022-12-11T17:09:53;2.70;99.90
59893;DHT22;45758;51.052;3.740;2022-12-11T17:12:27;2.70;99.90
59893;DHT22;45758;51.052;3.740;2022-12-11T17:14:55;2.70;99.90
59893;DHT22;45758;51.052;3.740;2022-12-11T17:17:24;2.80;99.90
59893;DHT22;45758;51.052;3.740;2022-12-11T17:20:03;2.90;99.90
59893;DHT22;45758;51.052;3.740;2022-12-11T17:22:29;3.00;99.90
59893;DHT22;45758;51.052;3.740;2022-12-11T17:24:58;2.80;99.90
59893;DHT22;45758;51.052;3.740;2022-12-11T17:27:27;2.50;99.90
59893;DHT22;45758;51.052;3.740;2022-12-11T17:29:53;2.50;99.90
59893;DHT22;45758;51.052;3.740;2022-12-11T17:32:20;2.50;99.90
59893;DHT22;45758;51.052;3.740;2022-12-11T17:34:50;2.50;99.90
59893;DHT22;45758;51.052;3.740;2022-12-11T17:37:20;2.40;99.90
59893;DHT22;45758;51.052;3.740;2022-12-11T17:39:46;2.50;99.90
59893;DHT22;45758;51.052;3.740;2022-12-11T17:42:14;2.30;99.90
59893;DHT22;45758;51.052;3.740;2022-12-11T17:44:40;2.30;99.90
59893;DHT22;45758;51.052;3.740;2022-12-11T17:47:09;2.20;99.90
59893;DHT22;45758;51.052;3.740;2022-12-11T17:49:38;2.10;99.90
59893;DHT22;45758;51.052;3.740;2022-12-11T17:52:05;2.00;99.90